createdAt,value
2023-02-11T00:03:09.471Z,69
2023-02-11T00:07:50.894Z,71.5
2023-02-11T00:12:33.221Z,69.8
2023-02-11T00:17:15.648Z,69.8
2023-02-11T00:21:57.976Z,66.9
2023-02-11T00:26:40.296Z,67.3
2023-02-11T00:31:22.717Z,68.3
2023-02-11T00:40:47.363Z,71.5
2023-02-11T00:45:29.792Z,66.3
2023-02-11T00:50:12.126Z,69.8
2023-02-11T00:54:54.444Z,67.6
2023-02-11T00:59:36.872Z,67.3
2023-02-11T01:04:19.192Z,64
2023-02-11T01:09:00.638Z,67.69
2023-02-11T01:13:42.957Z,70
2023-02-11T01:18:25.280Z,66.8
2023-02-11T01:27:50.031Z,60.7
2023-02-11T01:32:31.460Z,58.8
2023-02-11T01:37:12.887Z,67.19
2023-02-11T01:41:54.303Z,62
2023-02-11T01:46:35.733Z,64.19
2023-02-11T01:51:18.063Z,62.6
2023-02-11T01:56:00.384Z,61.9
2023-02-11T02:00:42.820Z,63.1
2023-02-11T02:05:24.243Z,62.4
2023-02-11T02:14:47.983Z,58.1
2023-02-11T02:19:30.323Z,58.6
2023-02-11T02:24:11.736Z,63.4
2023-02-11T02:28:53.157Z,58.8
2023-02-11T02:33:35.565Z,60.1
2023-02-11T02:38:17.903Z,58.7
2023-02-11T02:43:00.229Z,58.1
2023-02-11T02:47:42.559Z,56.2
2023-02-11T02:52:24.934Z,56.9
2023-02-11T03:01:49.641Z,54.7
2023-02-11T03:06:32.085Z,53.4
2023-02-11T03:11:14.397Z,50.5
2023-02-11T03:15:56.722Z,51.4
2023-02-11T03:25:21.459Z,49
2023-02-11T03:30:02.799Z,50.6
2023-02-11T03:34:44.229Z,46.3
2023-02-11T03:39:26.649Z,49.8
2023-02-11T03:48:51.301Z,44
2023-02-11T03:53:33.734Z,42.2
2023-02-11T03:58:16.066Z,46.4
2023-02-11T04:02:58.378Z,39.59
2023-02-11T04:07:39.822Z,35.3
2023-02-11T04:12:21.228Z,37.5
2023-02-11T04:17:03.559Z,33.4
2023-02-11T04:21:45.992Z,34.59
2023-02-11T04:26:28.309Z,31.5
2023-02-11T04:35:52.965Z,31.7
2023-02-11T04:40:35.392Z,31.1
2023-02-11T04:45:17.719Z,29.8
2023-02-11T04:50:00.045Z,29.3
2023-02-11T04:54:42.474Z,32.59
2023-02-11T04:59:24.803Z,31.2
2023-02-11T05:04:07.126Z,34.09
2023-02-11T05:08:49.557Z,30.7
2023-02-11T05:13:30.877Z,41.8
2023-02-11T05:22:55.628Z,26.6
2023-02-11T05:27:37.962Z,27.1
2023-02-11T05:32:20.383Z,27.1
2023-02-11T05:37:02.711Z,27.6
2023-02-11T05:41:45.036Z,25.6
2023-02-11T05:46:27.357Z,25.7
2023-02-11T05:51:09.793Z,25.6
2023-02-11T05:55:51.110Z,25.8
2023-02-11T06:00:32.437Z,24.8
2023-02-11T06:05:14.657Z,23.9
2023-02-11T06:09:57.020Z,27.3
2023-02-11T06:14:39.214Z,26.2
2023-02-11T06:19:21.542Z,23.3
2023-02-11T06:24:03.869Z,25.6
2023-02-11T06:28:46.101Z,24.3
2023-02-11T06:33:28.421Z,24.8
2023-02-11T06:38:10.655Z,23.6
2023-02-11T06:42:52.981Z,22
2023-02-11T06:47:34.304Z,19.5
2023-02-11T06:56:57.857Z,21.8
2023-02-11T07:01:40.181Z,23.2
2023-02-11T07:06:22.408Z,20.29
2023-02-11T07:11:04.735Z,23.7
2023-02-11T07:15:46.953Z,21.3
2023-02-11T07:20:28.288Z,21.7
2023-02-11T07:25:10.612Z,20.2
2023-02-11T07:29:52.849Z,19
2023-02-11T07:34:35.168Z,20.1
2023-02-11T07:43:59.716Z,29.8
2023-02-11T07:48:41.947Z,23.3
2023-02-11T07:53:24.270Z,20.29
2023-02-11T07:58:06.500Z,20.9
2023-02-11T08:02:48.824Z,16.9
2023-02-11T08:07:31.171Z,20.6
2023-02-11T08:12:13.375Z,18.2
2023-02-11T08:16:55.722Z,17.7
2023-02-11T08:21:37.021Z,16.4
2023-02-11T08:31:01.709Z,13.7
2023-02-11T08:35:43.809Z,14.3
2023-02-11T08:40:26.133Z,13.8
2023-02-11T08:45:08.352Z,12.5
2023-02-11T08:54:32.931Z,13.2
2023-02-11T08:59:15.240Z,14.6
2023-02-11T09:03:57.466Z,13.8
2023-02-11T09:08:39.801Z,11.4
2023-02-11T09:13:22.016Z,17.2
2023-02-11T09:22:46.567Z,14.2
2023-02-11T09:27:28.896Z,14.2
2023-02-11T09:32:11.271Z,14.9
2023-02-11T09:36:53.455Z,13.8
2023-02-11T09:41:35.786Z,13.1
2023-02-11T09:46:18.009Z,14
2023-02-11T09:51:00.367Z,13.5
2023-02-11T09:55:42.560Z,16.1
2023-02-11T10:09:49.441Z,13.5
2023-02-11T10:19:14.003Z,15
2023-02-11T10:23:56.231Z,12.7
2023-02-11T10:28:38.544Z,13.9
2023-02-11T10:38:03.113Z,14.4
2023-02-11T10:47:27.655Z,14.3
2023-02-11T10:52:09.979Z,13.1
2023-02-11T10:56:52.212Z,15
2023-02-11T11:01:34.535Z,14.1
2023-02-11T11:06:16.839Z,14.3
2023-02-11T11:20:23.845Z,12.7
2023-02-11T11:34:30.924Z,13.5
2023-02-11T11:39:13.163Z,14.4
2023-02-11T11:43:54.565Z,15
2023-02-11T11:48:36.941Z,15.8
2023-02-11T11:53:19.314Z,14
2023-02-11T11:58:01.709Z,16.1
2023-02-11T12:02:43.970Z,14.6
2023-02-11T12:07:26.295Z,13.3
2023-02-11T12:12:08.742Z,14.6
2023-02-11T12:26:15.699Z,15.8
2023-02-11T12:30:58.127Z,14.7
2023-02-11T12:35:40.459Z,14.6
2023-02-11T12:40:22.780Z,16.29
2023-02-11T12:45:05.157Z,14.9
2023-02-11T12:49:47.529Z,17.2
2023-02-11T12:54:29.856Z,13.7
2023-02-11T12:59:12.186Z,13.4
2023-02-11T13:08:36.946Z,13.3
2023-02-11T13:13:19.271Z,15.6
2023-02-11T13:18:00.692Z,14.9
2023-02-11T13:22:43.018Z,19.9
2023-02-11T13:27:25.344Z,14.6
2023-02-11T13:32:07.799Z,14.1
2023-02-11T13:36:50.097Z,15
2023-02-11T13:41:32.436Z,12.8
2023-02-11T13:46:14.746Z,14.7
2023-02-11T14:00:21.827Z,16.29
2023-02-11T14:05:04.147Z,14.5
2023-02-11T14:09:46.576Z,13
2023-02-11T14:14:29.048Z,15.2
2023-02-11T14:19:11.236Z,11.8
2023-02-11T14:23:53.559Z,12.5
2023-02-11T14:28:35.976Z,12.7
2023-02-11T14:33:18.375Z,13.3
2023-02-11T14:42:42.973Z,15.5
2023-02-11T14:47:25.599Z,14.4
2023-02-11T14:52:06.813Z,13.6
2023-02-11T14:56:49.143Z,11.3
2023-02-11T15:01:31.471Z,13.4
2023-02-11T15:06:13.791Z,14
2023-02-11T15:10:56.223Z,13
2023-02-11T15:15:38.540Z,12.8
2023-02-11T15:20:20.871Z,13.4
2023-02-11T15:29:45.632Z,13.2
2023-02-11T15:34:27.947Z,15.1
2023-02-11T15:39:10.280Z,14.1
2023-02-11T15:43:52.600Z,13.3
2023-02-11T15:48:35.029Z,14.8
2023-02-11T15:53:17.353Z,15.6
2023-02-11T15:57:59.693Z,13.9
2023-02-11T16:02:42.016Z,16.1
2023-02-11T16:07:24.451Z,13.8
2023-02-11T16:16:49.087Z,15.9
2023-02-11T16:21:31.509Z,18
2023-02-11T16:26:12.832Z,15.7
2023-02-11T16:30:55.263Z,14.9
2023-02-11T16:40:19.915Z,18.29
2023-02-11T16:45:02.373Z,18.9
2023-02-11T16:49:44.667Z,17.4
2023-02-11T16:54:26.986Z,16.79
2023-02-11T17:03:51.758Z,17.2
2023-02-11T17:08:34.067Z,18.79
2023-02-11T17:13:16.437Z,20.1
2023-02-11T17:17:58.746Z,19.5
2023-02-11T17:22:41.142Z,21.7
2023-02-11T17:27:23.471Z,18.79
2023-02-11T17:32:04.893Z,20.6
2023-02-11T17:36:47.220Z,20.8
2023-02-11T17:41:29.550Z,18.2
2023-02-11T17:50:54.300Z,18.5
2023-02-11T17:55:36.626Z,21.4
2023-02-11T18:00:18.953Z,19.1
2023-02-11T18:05:01.395Z,21.8
2023-02-11T18:09:43.763Z,20.29
2023-02-11T18:14:26.065Z,18.79
2023-02-11T18:19:08.386Z,17.9
2023-02-11T18:23:50.867Z,19.9
2023-02-11T18:28:33.114Z,19.5
2023-02-11T18:37:57.783Z,21.1
2023-02-11T18:42:40.193Z,20
2023-02-11T18:52:03.940Z,18.2
2023-02-11T19:01:28.605Z,19.5
2023-02-11T19:06:11.026Z,20.7
2023-02-11T19:10:53.354Z,20
2023-02-11T19:15:35.689Z,20.5
2023-02-11T19:25:00.462Z,22.2
2023-02-11T19:29:42.753Z,24.1
2023-02-11T19:34:25.084Z,21.5
2023-02-11T19:39:07.406Z,22.9
2023-02-11T19:43:49.830Z,20.5
2023-02-11T19:48:32.160Z,20.9
2023-02-11T19:53:13.586Z,22.2
2023-02-11T19:57:56.021Z,22.9
2023-02-11T20:02:38.246Z,22.4
2023-02-11T20:12:02.989Z,25
2023-02-11T20:16:45.315Z,26
2023-02-11T20:21:27.633Z,21
2023-02-11T20:26:10.064Z,22
2023-02-11T20:30:52.392Z,22.4
2023-02-11T20:35:34.715Z,23.5
2023-02-11T20:40:17.139Z,20.5
2023-02-11T20:44:59.458Z,23.4
2023-02-11T20:59:06.561Z,23.7
2023-02-11T21:03:48.870Z,23.9
2023-02-11T21:08:30.293Z,22.1
2023-02-11T21:13:12.652Z,24.8
2023-02-11T21:17:54.947Z,22.3
2023-02-11T21:22:37.384Z,24.5
2023-02-11T21:27:19.721Z,22.1
2023-02-11T21:32:02.030Z,22.7
2023-02-11T21:36:44.353Z,23
2023-02-11T21:46:09.130Z,28.7
2023-02-11T21:50:51.438Z,23.3
2023-02-11T21:55:33.768Z,21.1
2023-02-11T22:00:16.227Z,24.8
2023-02-11T22:04:58.518Z,22.7
2023-02-11T22:09:40.839Z,23.6
2023-02-11T22:14:23.273Z,24.1
2023-02-11T22:19:05.674Z,23.1
2023-02-11T22:23:47.920Z,29.6
2023-02-11T22:33:12.670Z,25.8
2023-02-11T22:37:54.994Z,25.6
2023-02-11T22:42:37.386Z,25.9
2023-02-11T22:47:19.646Z,24.7
2023-02-11T22:52:02.068Z,26.4
2023-02-11T22:56:44.392Z,25.5
2023-02-11T23:01:26.726Z,24.6
2023-02-11T23:06:09.056Z,28
2023-02-11T23:10:51.479Z,25.5
2023-02-11T23:20:16.129Z,32
2023-02-11T23:24:58.562Z,25.6
2023-02-11T23:29:39.982Z,26.9
2023-02-11T23:34:22.304Z,26.5
2023-02-11T23:39:04.634Z,24.7
2023-02-11T23:43:46.964Z,28
2023-02-11T23:48:29.386Z,27.9
2023-02-11T23:53:11.715Z,27.3
2023-02-11T23:57:54.072Z,30.2
